sensor_id;sensor_type;location;lat;lon;timestamp;P1;durP1;ratioP1;P2;durP2;ratioP2
24961;SDS011;12992;50.884;13.668;2023-03-31T00:00:27;3.42;;;0.93;;
24961;SDS011;12992;50.884;13.668;2023-03-31T00:02:53;3.03;;;1.35;;
24961;SDS011;12992;50.884;13.668;2023-03-31T00:05:20;3.40;;;0.90;;
24961;SDS011;12992;50.884;13.668;2023-03-31T00:07:51;4.72;;;1.17;;
24961;SDS011;12992;50.884;13.668;2023-03-31T00:10:33;3.00;;;0.80;;
24961;SDS011;12992;50.884;13.668;2023-03-31T00:13:00;3.53;;;1.10;;
24961;SDS011;12992;50.884;13.668;2023-03-31T00:15:26;5.15;;;1.30;;
24961;SDS011;12992;50.884;13.668;2023-03-31T00:17:52;3.42;;;0.90;;
24961;SDS011;12992;50.884;13.668;2023-03-31T00:20:17;2.58;;;1.00;;
24961;SDS011;12992;50.884;13.668;2023-03-31T00:22:44;1.85;;;1.00;;
24961;SDS011;12992;50.884;13.668;2023-03-31T00:25:10;2.63;;;1.00;;
24961;SDS011;12992;50.884;13.668;2023-03-31T00:27:36;3.88;;;1.13;;
24961;SDS011;12992;50.884;13.668;2023-03-31T00:30:01;3.72;;;0.93;;
24961;SDS011;12992;50.884;13.668;2023-03-31T00:32:28;4.68;;;1.00;;
24961;SDS011;12992;50.884;13.668;2023-03-31T00:34:53;5.20;;;1.08;;
24961;SDS011;12992;50.884;13.668;2023-03-31T00:37:18;2.05;;;1.17;;
24961;SDS011;12992;50.884;13.668;2023-03-31T00:39:44;6.60;;;1.10;;
24961;SDS011;12992;50.884;13.668;2023-03-31T00:42:10;1.92;;;0.85;;
24961;SDS011;12992;50.884;13.668;2023-03-31T00:50:20;3.47;;;1.10;;
24961;SDS011;12992;50.884;13.668;2023-03-31T00:52:50;4.15;;;0.98;;
24961;SDS011;12992;50.884;13.668;2023-03-31T00:55:34;3.30;;;0.93;;
24961;SDS011;12992;50.884;13.668;2023-03-31T00:58:04;3.15;;;0.80;;
24961;SDS011;12992;50.884;13.668;2023-03-31T01:00:31;6.07;;;1.10;;
24961;SDS011;12992;50.884;13.668;2023-03-31T01:02:57;2.20;;;1.10;;
24961;SDS011;12992;50.884;13.668;2023-03-31T01:05:42;4.63;;;1.10;;
24961;SDS011;12992;50.884;13.668;2023-03-31T01:08:12;3.47;;;0.70;;
24961;SDS011;12992;50.884;13.668;2023-03-31T01:10:39;5.80;;;1.20;;
24961;SDS011;12992;50.884;13.668;2023-03-31T01:13:08;2.40;;;0.98;;
24961;SDS011;12992;50.884;13.668;2023-03-31T01:15:35;3.25;;;1.35;;
24961;SDS011;12992;50.884;13.668;2023-03-31T01:18:02;2.83;;;0.93;;
24961;SDS011;12992;50.884;13.668;2023-03-31T01:26:03;3.20;;;0.90;;
24961;SDS011;12992;50.884;13.668;2023-03-31T01:31:48;7.22;;;1.30;;
24961;SDS011;12992;50.884;13.668;2023-03-31T01:34:21;3.88;;;1.20;;
24961;SDS011;12992;50.884;13.668;2023-03-31T01:54:18;5.25;;;1.13;;
24961;SDS011;12992;50.884;13.668;2023-03-31T01:56:56;3.72;;;1.15;;
24961;SDS011;12992;50.884;13.668;2023-03-31T01:59:30;4.22;;;1.10;;
24961;SDS011;12992;50.884;13.668;2023-03-31T02:02:05;2.65;;;1.00;;
24961;SDS011;12992;50.884;13.668;2023-03-31T02:04:41;3.63;;;1.00;;
24961;SDS011;12992;50.884;13.668;2023-03-31T02:07:14;4.18;;;1.23;;
24961;SDS011;12992;50.884;13.668;2023-03-31T02:09:45;2.35;;;0.88;;
24961;SDS011;12992;50.884;13.668;2023-03-31T02:12:15;3.70;;;1.05;;
24961;SDS011;12992;50.884;13.668;2023-03-31T02:14:43;3.55;;;1.45;;
24961;SDS011;12992;50.884;13.668;2023-03-31T02:17:14;3.80;;;1.00;;
24961;SDS011;12992;50.884;13.668;2023-03-31T02:19:43;3.53;;;1.67;;
24961;SDS011;12992;50.884;13.668;2023-03-31T02:22:12;5.07;;;1.08;;
24961;SDS011;12992;50.884;13.668;2023-03-31T02:24:40;5.05;;;1.20;;
24961;SDS011;12992;50.884;13.668;2023-03-31T02:27:24;6.25;;;1.58;;
24961;SDS011;12992;50.884;13.668;2023-03-31T02:29:52;7.20;;;2.22;;
24961;SDS011;12992;50.884;13.668;2023-03-31T02:32:41;3.92;;;1.20;;
24961;SDS011;12992;50.884;13.668;2023-03-31T02:35:07;4.00;;;1.15;;
24961;SDS011;12992;50.884;13.668;2023-03-31T02:37:39;5.03;;;1.33;;
24961;SDS011;12992;50.884;13.668;2023-03-31T02:40:06;5.07;;;1.98;;
24961;SDS011;12992;50.884;13.668;2023-03-31T02:42:36;9.02;;;1.63;;
24961;SDS011;12992;50.884;13.668;2023-03-31T02:45:03;3.72;;;1.10;;
24961;SDS011;12992;50.884;13.668;2023-03-31T02:47:30;3.35;;;1.10;;
24961;SDS011;12992;50.884;13.668;2023-03-31T02:49:57;3.33;;;1.05;;
24961;SDS011;12992;50.884;13.668;2023-03-31T02:58:26;7.45;;;1.50;;
24961;SDS011;12992;50.884;13.668;2023-03-31T03:01:17;4.82;;;1.40;;
24961;SDS011;12992;50.884;13.668;2023-03-31T03:03:53;6.90;;;1.08;;
24961;SDS011;12992;50.884;13.668;2023-03-31T03:06:35;2.65;;;1.05;;
24961;SDS011;12992;50.884;13.668;2023-03-31T03:11:57;4.23;;;1.20;;
24961;SDS011;12992;50.884;13.668;2023-03-31T03:14:36;5.22;;;1.38;;
24961;SDS011;12992;50.884;13.668;2023-03-31T03:17:26;6.28;;;1.50;;
24961;SDS011;12992;50.884;13.668;2023-03-31T03:19:58;5.20;;;1.05;;
24961;SDS011;12992;50.884;13.668;2023-03-31T03:22:25;4.50;;;1.35;;
24961;SDS011;12992;50.884;13.668;2023-03-31T03:24:50;8.45;;;1.42;;
24961;SDS011;12992;50.884;13.668;2023-03-31T03:27:16;6.05;;;1.40;;
24961;SDS011;12992;50.884;13.668;2023-03-31T03:29:42;5.43;;;1.30;;
24961;SDS011;12992;50.884;13.668;2023-03-31T03:32:08;4.63;;;1.30;;
24961;SDS011;12992;50.884;13.668;2023-03-31T03:34:34;5.88;;;1.20;;
24961;SDS011;12992;50.884;13.668;2023-03-31T03:36:59;6.35;;;1.25;;
24961;SDS011;12992;50.884;13.668;2023-03-31T03:39:24;4.22;;;1.10;;
24961;SDS011;12992;50.884;13.668;2023-03-31T03:41:50;4.57;;;1.40;;
24961;SDS011;12992;50.884;13.668;2023-03-31T03:44:15;4.35;;;1.08;;
24961;SDS011;12992;50.884;13.668;2023-03-31T03:46:40;5.95;;;1.33;;
24961;SDS011;12992;50.884;13.668;2023-03-31T03:49:06;4.50;;;1.20;;
24961;SDS011;12992;50.884;13.668;2023-03-31T03:51:31;4.65;;;1.25;;
24961;SDS011;12992;50.884;13.668;2023-03-31T03:53:56;4.43;;;1.10;;
24961;SDS011;12992;50.884;13.668;2023-03-31T03:56:22;4.20;;;0.90;;
24961;SDS011;12992;50.884;13.668;2023-03-31T03:58:47;3.58;;;1.27;;
24961;SDS011;12992;50.884;13.668;2023-03-31T04:01:12;4.72;;;1.13;;
24961;SDS011;12992;50.884;13.668;2023-03-31T04:03:38;2.92;;;0.93;;
24961;SDS011;12992;50.884;13.668;2023-03-31T04:06:03;6.70;;;1.45;;
24961;SDS011;12992;50.884;13.668;2023-03-31T04:08:29;6.60;;;1.45;;
24961;SDS011;12992;50.884;13.668;2023-03-31T04:10:54;6.35;;;1.20;;
24961;SDS011;12992;50.884;13.668;2023-03-31T04:13:20;4.78;;;1.27;;
24961;SDS011;12992;50.884;13.668;2023-03-31T04:15:45;6.05;;;1.05;;
24961;SDS011;12992;50.884;13.668;2023-03-31T04:18:11;4.72;;;1.35;;
24961;SDS011;12992;50.884;13.668;2023-03-31T04:20:43;6.07;;;1.10;;
24961;SDS011;12992;50.884;13.668;2023-03-31T04:23:09;5.13;;;1.20;;
24961;SDS011;12992;50.884;13.668;2023-03-31T04:25:34;5.63;;;1.00;;
24961;SDS011;12992;50.884;13.668;2023-03-31T04:28:03;4.97;;;1.17;;
24961;SDS011;12992;50.884;13.668;2023-03-31T04:30:31;4.55;;;1.10;;
24961;SDS011;12992;50.884;13.668;2023-03-31T04:33:00;5.78;;;1.20;;
24961;SDS011;12992;50.884;13.668;2023-03-31T04:35:27;4.75;;;1.33;;
24961;SDS011;12992;50.884;13.668;2023-03-31T04:38:13;4.32;;;1.00;;
24961;SDS011;12992;50.884;13.668;2023-03-31T04:40:42;5.00;;;1.40;;
24961;SDS011;12992;50.884;13.668;2023-03-31T04:43:09;6.00;;;1.30;;
24961;SDS011;12992;50.884;13.668;2023-03-31T04:45:34;4.95;;;1.20;;
24961;SDS011;12992;50.884;13.668;2023-03-31T04:48:00;4.47;;;1.35;;
24961;SDS011;12992;50.884;13.668;2023-03-31T04:50:25;7.13;;;1.33;;
24961;SDS011;12992;50.884;13.668;2023-03-31T04:52:50;6.13;;;1.50;;
24961;SDS011;12992;50.884;13.668;2023-03-31T04:55:16;3.80;;;1.15;;
24961;SDS011;12992;50.884;13.668;2023-03-31T04:57:41;6.82;;;1.35;;
24961;SDS011;12992;50.884;13.668;2023-03-31T05:00:06;3.50;;;1.00;;
24961;SDS011;12992;50.884;13.668;2023-03-31T05:02:33;2.15;;;1.00;;
24961;SDS011;12992;50.884;13.668;2023-03-31T05:04:58;5.15;;;1.40;;
24961;SDS011;12992;50.884;13.668;2023-03-31T05:07:23;5.15;;;1.35;;
24961;SDS011;12992;50.884;13.668;2023-03-31T05:09:49;5.38;;;1.00;;
24961;SDS011;12992;50.884;13.668;2023-03-31T05:12:14;2.80;;;0.90;;
24961;SDS011;12992;50.884;13.668;2023-03-31T05:14:40;4.30;;;1.13;;
24961;SDS011;12992;50.884;13.668;2023-03-31T05:17:05;3.25;;;0.85;;
24961;SDS011;12992;50.884;13.668;2023-03-31T05:19:30;3.90;;;1.10;;
24961;SDS011;12992;50.884;13.668;2023-03-31T05:21:56;4.32;;;1.10;;
24961;SDS011;12992;50.884;13.668;2023-03-31T05:24:21;6.97;;;1.13;;
24961;SDS011;12992;50.884;13.668;2023-03-31T05:26:46;4.32;;;1.35;;
24961;SDS011;12992;50.884;13.668;2023-03-31T05:29:17;5.28;;;1.00;;
24961;SDS011;12992;50.884;13.668;2023-03-31T05:31:42;6.15;;;1.20;;
24961;SDS011;12992;50.884;13.668;2023-03-31T05:34:08;6.72;;;1.40;;
24961;SDS011;12992;50.884;13.668;2023-03-31T05:36:33;5.88;;;1.05;;
24961;SDS011;12992;50.884;13.668;2023-03-31T05:38:59;4.00;;;1.13;;
24961;SDS011;12992;50.884;13.668;2023-03-31T05:41:24;5.07;;;1.25;;
24961;SDS011;12992;50.884;13.668;2023-03-31T05:43:50;6.85;;;1.38;;
24961;SDS011;12992;50.884;13.668;2023-03-31T05:46:15;5.68;;;1.13;;
24961;SDS011;12992;50.884;13.668;2023-03-31T05:48:42;3.53;;;1.13;;
24961;SDS011;12992;50.884;13.668;2023-03-31T05:51:09;1.90;;;0.90;;
24961;SDS011;12992;50.884;13.668;2023-03-31T05:53:34;7.97;;;1.48;;
24961;SDS011;12992;50.884;13.668;2023-03-31T05:56:00;4.97;;;1.00;;
24961;SDS011;12992;50.884;13.668;2023-03-31T05:58:28;4.25;;;1.15;;
24961;SDS011;12992;50.884;13.668;2023-03-31T06:01:09;5.13;;;1.15;;
24961;SDS011;12992;50.884;13.668;2023-03-31T06:03:46;5.80;;;0.90;;
24961;SDS011;12992;50.884;13.668;2023-03-31T06:06:12;5.30;;;0.90;;
24961;SDS011;12992;50.884;13.668;2023-03-31T06:08:39;4.22;;;1.17;;
24961;SDS011;12992;50.884;13.668;2023-03-31T06:11:05;4.47;;;1.10;;
24961;SDS011;12992;50.884;13.668;2023-03-31T06:13:32;2.88;;;1.00;;
24961;SDS011;12992;50.884;13.668;2023-03-31T06:15:59;5.32;;;1.10;;
24961;SDS011;12992;50.884;13.668;2023-03-31T06:18:28;3.40;;;1.27;;
24961;SDS011;12992;50.884;13.668;2023-03-31T06:20:55;4.13;;;1.13;;
24961;SDS011;12992;50.884;13.668;2023-03-31T06:23:21;2.22;;;0.98;;
24961;SDS011;12992;50.884;13.668;2023-03-31T06:25:47;4.38;;;1.30;;
24961;SDS011;12992;50.884;13.668;2023-03-31T06:28:13;3.33;;;1.10;;
24961;SDS011;12992;50.884;13.668;2023-03-31T06:30:38;2.05;;;1.13;;
24961;SDS011;12992;50.884;13.668;2023-03-31T06:33:04;3.17;;;1.35;;
24961;SDS011;12992;50.884;13.668;2023-03-31T06:35:29;6.32;;;1.92;;
24961;SDS011;12992;50.884;13.668;2023-03-31T06:37:55;5.82;;;1.10;;
24961;SDS011;12992;50.884;13.668;2023-03-31T06:40:21;5.07;;;1.65;;
24961;SDS011;12992;50.884;13.668;2023-03-31T06:42:47;5.93;;;1.50;;
24961;SDS011;12992;50.884;13.668;2023-03-31T06:45:12;4.05;;;1.20;;
24961;SDS011;12992;50.884;13.668;2023-03-31T06:47:37;4.75;;;1.33;;
24961;SDS011;12992;50.884;13.668;2023-03-31T06:50:05;5.15;;;1.27;;
24961;SDS011;12992;50.884;13.668;2023-03-31T06:52:32;7.30;;;1.40;;
24961;SDS011;12992;50.884;13.668;2023-03-31T06:54:57;6.68;;;1.63;;
24961;SDS011;12992;50.884;13.668;2023-03-31T06:57:24;3.75;;;1.40;;
24961;SDS011;12992;50.884;13.668;2023-03-31T06:59:49;4.97;;;1.27;;
24961;SDS011;12992;50.884;13.668;2023-03-31T07:02:15;11.55;;;1.33;;
24961;SDS011;12992;50.884;13.668;2023-03-31T07:04:40;7.80;;;1.75;;
24961;SDS011;12992;50.884;13.668;2023-03-31T07:07:05;4.32;;;1.25;;
24961;SDS011;12992;50.884;13.668;2023-03-31T07:09:31;5.18;;;1.55;;
24961;SDS011;12992;50.884;13.668;2023-03-31T07:11:56;4.18;;;0.98;;
24961;SDS011;12992;50.884;13.668;2023-03-31T07:14:21;4.70;;;1.00;;
24961;SDS011;12992;50.884;13.668;2023-03-31T07:16:47;4.75;;;1.48;;
24961;SDS011;12992;50.884;13.668;2023-03-31T07:19:12;6.43;;;1.40;;
24961;SDS011;12992;50.884;13.668;2023-03-31T07:21:39;3.65;;;1.48;;
24961;SDS011;12992;50.884;13.668;2023-03-31T07:24:04;4.13;;;1.15;;
24961;SDS011;12992;50.884;13.668;2023-03-31T07:26:30;3.67;;;1.35;;
24961;SDS011;12992;50.884;13.668;2023-03-31T07:28:55;4.35;;;1.20;;
24961;SDS011;12992;50.884;13.668;2023-03-31T07:31:21;6.93;;;1.95;;
24961;SDS011;12992;50.884;13.668;2023-03-31T07:33:47;3.80;;;1.20;;
24961;SDS011;12992;50.884;13.668;2023-03-31T07:36:13;7.13;;;1.23;;
24961;SDS011;12992;50.884;13.668;2023-03-31T07:38:39;4.88;;;1.20;;
24961;SDS011;12992;50.884;13.668;2023-03-31T07:41:05;3.80;;;1.20;;
24961;SDS011;12992;50.884;13.668;2023-03-31T07:43:34;2.42;;;0.95;;
24961;SDS011;12992;50.884;13.668;2023-03-31T07:45:59;6.22;;;1.58;;
24961;SDS011;12992;50.884;13.668;2023-03-31T07:48:25;6.70;;;1.52;;
24961;SDS011;12992;50.884;13.668;2023-03-31T07:50:52;5.65;;;1.50;;
24961;SDS011;12992;50.884;13.668;2023-03-31T07:53:26;3.63;;;1.35;;
24961;SDS011;12992;50.884;13.668;2023-03-31T07:55:51;6.63;;;1.70;;
24961;SDS011;12992;50.884;13.668;2023-03-31T07:58:17;3.85;;;1.10;;
24961;SDS011;12992;50.884;13.668;2023-03-31T08:00:42;7.90;;;1.92;;
24961;SDS011;12992;50.884;13.668;2023-03-31T08:03:07;3.17;;;1.20;;
24961;SDS011;12992;50.884;13.668;2023-03-31T08:05:33;4.63;;;1.17;;
24961;SDS011;12992;50.884;13.668;2023-03-31T08:07:58;6.65;;;1.92;;
24961;SDS011;12992;50.884;13.668;2023-03-31T08:10:25;6.90;;;1.40;;
24961;SDS011;12992;50.884;13.668;2023-03-31T08:12:51;3.08;;;1.20;;
24961;SDS011;12992;50.884;13.668;2023-03-31T08:15:17;8.32;;;1.60;;
24961;SDS011;12992;50.884;13.668;2023-03-31T08:17:42;5.15;;;1.50;;
24961;SDS011;12992;50.884;13.668;2023-03-31T08:20:08;4.68;;;1.92;;
24961;SDS011;12992;50.884;13.668;2023-03-31T08:22:37;5.07;;;1.27;;
24961;SDS011;12992;50.884;13.668;2023-03-31T08:25:04;4.82;;;1.70;;
24961;SDS011;12992;50.884;13.668;2023-03-31T08:27:33;12.93;;;2.20;;
24961;SDS011;12992;50.884;13.668;2023-03-31T08:30:00;3.78;;;1.40;;
24961;SDS011;12992;50.884;13.668;2023-03-31T08:32:28;6.30;;;1.60;;
24961;SDS011;12992;50.884;13.668;2023-03-31T08:34:57;9.00;;;2.33;;
24961;SDS011;12992;50.884;13.668;2023-03-31T08:37:22;5.38;;;1.80;;
24961;SDS011;12992;50.884;13.668;2023-03-31T08:39:48;6.72;;;1.92;;
24961;SDS011;12992;50.884;13.668;2023-03-31T08:42:19;5.65;;;1.77;;
24961;SDS011;12992;50.884;13.668;2023-03-31T08:47:28;5.70;;;1.65;;
24961;SDS011;12992;50.884;13.668;2023-03-31T08:50:01;8.20;;;1.60;;
24961;SDS011;12992;50.884;13.668;2023-03-31T08:52:35;3.53;;;1.35;;
24961;SDS011;12992;50.884;13.668;2023-03-31T08:55:27;4.82;;;1.98;;
24961;SDS011;12992;50.884;13.668;2023-03-31T08:58:12;4.30;;;1.90;;
24961;SDS011;12992;50.884;13.668;2023-03-31T09:00:50;6.03;;;1.88;;
24961;SDS011;12992;50.884;13.668;2023-03-31T09:03:37;4.30;;;1.70;;
24961;SDS011;12992;50.884;13.668;2023-03-31T09:06:21;5.03;;;1.48;;
24961;SDS011;12992;50.884;13.668;2023-03-31T09:08:59;6.43;;;1.90;;
24961;SDS011;12992;50.884;13.668;2023-03-31T09:11:31;4.65;;;2.05;;
24961;SDS011;12992;50.884;13.668;2023-03-31T09:14:22;6.95;;;2.08;;
24961;SDS011;12992;50.884;13.668;2023-03-31T09:19:35;7.18;;;2.20;;
24961;SDS011;12992;50.884;13.668;2023-03-31T09:22:08;2.47;;;1.85;;
24961;SDS011;12992;50.884;13.668;2023-03-31T09:24:45;2.95;;;1.90;;
24961;SDS011;12992;50.884;13.668;2023-03-31T09:27:16;4.88;;;1.95;;
24961;SDS011;12992;50.884;13.668;2023-03-31T09:29:45;3.53;;;2.00;;
24961;SDS011;12992;50.884;13.668;2023-03-31T09:32:28;4.85;;;2.33;;
24961;SDS011;12992;50.884;13.668;2023-03-31T09:34:56;7.85;;;3.95;;
24961;SDS011;12992;50.884;13.668;2023-03-31T09:37:26;4.60;;;1.98;;
24961;SDS011;12992;50.884;13.668;2023-03-31T09:39:54;4.03;;;1.77;;
24961;SDS011;12992;50.884;13.668;2023-03-31T09:42:19;4.70;;;1.67;;
24961;SDS011;12992;50.884;13.668;2023-03-31T09:44:45;5.15;;;1.88;;
24961;SDS011;12992;50.884;13.668;2023-03-31T09:47:15;3.17;;;1.83;;
24961;SDS011;12992;50.884;13.668;2023-03-31T09:49:48;3.22;;;1.77;;
24961;SDS011;12992;50.884;13.668;2023-03-31T09:55:00;3.38;;;1.60;;
24961;SDS011;12992;50.884;13.668;2023-03-31T09:57:31;1.67;;;1.25;;
24961;SDS011;12992;50.884;13.668;2023-03-31T10:02:38;3.60;;;1.80;;
24961;SDS011;12992;50.884;13.668;2023-03-31T10:05:17;6.03;;;2.15;;
24961;SDS011;12992;50.884;13.668;2023-03-31T10:07:46;5.05;;;2.35;;
24961;SDS011;12992;50.884;13.668;2023-03-31T10:10:25;5.32;;;2.75;;
24961;SDS011;12992;50.884;13.668;2023-03-31T10:12:55;4.38;;;2.15;;
24961;SDS011;12992;50.884;13.668;2023-03-31T10:15:22;4.68;;;2.63;;
24961;SDS011;12992;50.884;13.668;2023-03-31T10:17:50;2.60;;;2.05;;
24961;SDS011;12992;50.884;13.668;2023-03-31T10:20:18;4.78;;;2.50;;
24961;SDS011;12992;50.884;13.668;2023-03-31T10:22:51;4.82;;;2.50;;
24961;SDS011;12992;50.884;13.668;2023-03-31T10:25:20;5.68;;;2.53;;
24961;SDS011;12992;50.884;13.668;2023-03-31T10:27:48;4.45;;;2.75;;
24961;SDS011;12992;50.884;13.668;2023-03-31T10:30:20;7.28;;;2.67;;
24961;SDS011;12992;50.884;13.668;2023-03-31T10:32:48;5.25;;;2.58;;
24961;SDS011;12992;50.884;13.668;2023-03-31T10:35:33;4.03;;;2.80;;
24961;SDS011;12992;50.884;13.668;2023-03-31T10:38:05;4.53;;;2.97;;
24961;SDS011;12992;50.884;13.668;2023-03-31T10:40:36;3.53;;;2.90;;
24961;SDS011;12992;50.884;13.668;2023-03-31T10:45:42;3.95;;;2.70;;
24961;SDS011;12992;50.884;13.668;2023-03-31T10:48:31;4.70;;;2.58;;
24961;SDS011;12992;50.884;13.668;2023-03-31T10:51:05;3.00;;;2.70;;
24961;SDS011;12992;50.884;13.668;2023-03-31T10:53:46;4.32;;;2.42;;
24961;SDS011;12992;50.884;13.668;2023-03-31T10:56:29;5.22;;;2.80;;
24961;SDS011;12992;50.884;13.668;2023-03-31T10:59:13;5.35;;;3.00;;
24961;SDS011;12992;50.884;13.668;2023-03-31T11:07:47;3.13;;;2.08;;
24961;SDS011;12992;50.884;13.668;2023-03-31T11:10:40;3.90;;;2.22;;
24961;SDS011;12992;50.884;13.668;2023-03-31T11:13:26;3.67;;;2.40;;
24961;SDS011;12992;50.884;13.668;2023-03-31T11:19:10;2.50;;;2.15;;
24961;SDS011;12992;50.884;13.668;2023-03-31T11:24:32;5.28;;;2.10;;
24961;SDS011;12992;50.884;13.668;2023-03-31T11:32:56;3.45;;;2.22;;
24961;SDS011;12992;50.884;13.668;2023-03-31T11:35:44;6.30;;;2.00;;
24961;SDS011;12992;50.884;13.668;2023-03-31T11:41:07;3.30;;;1.80;;
24961;SDS011;12992;50.884;13.668;2023-03-31T11:48:57;2.83;;;2.05;;
24961;SDS011;12992;50.884;13.668;2023-03-31T11:51:27;7.43;;;2.00;;
24961;SDS011;12992;50.884;13.668;2023-03-31T11:53:58;2.53;;;1.52;;
24961;SDS011;12992;50.884;13.668;2023-03-31T11:56:34;3.65;;;2.08;;
24961;SDS011;12992;50.884;13.668;2023-03-31T11:59:02;3.60;;;1.50;;
24961;SDS011;12992;50.884;13.668;2023-03-31T12:04:34;4.85;;;1.90;;
24961;SDS011;12992;50.884;13.668;2023-03-31T12:07:51;2.08;;;1.88;;
24961;SDS011;12992;50.884;13.668;2023-03-31T12:10:04;1.92;;;1.45;;
24961;SDS011;12992;50.884;13.668;2023-03-31T12:12:38;2.55;;;1.83;;
24961;SDS011;12992;50.884;13.668;2023-03-31T12:15:13;1.88;;;1.75;;
24961;SDS011;12992;50.884;13.668;2023-03-31T12:17:46;2.90;;;1.73;;
24961;SDS011;12992;50.884;13.668;2023-03-31T12:20:23;3.17;;;1.70;;
24961;SDS011;12992;50.884;13.668;2023-03-31T12:22:55;2.20;;;1.58;;
24961;SDS011;12992;50.884;13.668;2023-03-31T12:25:22;1.83;;;1.30;;
24961;SDS011;12992;50.884;13.668;2023-03-31T12:27:50;2.50;;;1.33;;
24961;SDS011;12992;50.884;13.668;2023-03-31T12:33:00;2.75;;;1.73;;
24961;SDS011;12992;50.884;13.668;2023-03-31T12:44:36;2.28;;;2.05;;
24961;SDS011;12992;50.884;13.668;2023-03-31T12:50:27;2.28;;;2.08;;
24961;SDS011;12992;50.884;13.668;2023-03-31T12:55:55;3.90;;;2.25;;
24961;SDS011;12992;50.884;13.668;2023-03-31T13:01:00;2.13;;;1.92;;
24961;SDS011;12992;50.884;13.668;2023-03-31T13:03:43;3.08;;;1.33;;
24961;SDS011;12992;50.884;13.668;2023-03-31T13:08:58;3.20;;;1.60;;
24961;SDS011;12992;50.884;13.668;2023-03-31T13:11:39;2.97;;;1.73;;
24961;SDS011;12992;50.884;13.668;2023-03-31T13:14:12;2.95;;;1.58;;
24961;SDS011;12992;50.884;13.668;2023-03-31T13:16:43;3.05;;;1.80;;
24961;SDS011;12992;50.884;13.668;2023-03-31T13:19:11;2.28;;;1.52;;
24961;SDS011;12992;50.884;13.668;2023-03-31T13:22:00;2.92;;;1.42;;
24961;SDS011;12992;50.884;13.668;2023-03-31T13:24:27;2.03;;;1.50;;
24961;SDS011;12992;50.884;13.668;2023-03-31T13:26:55;2.35;;;1.45;;
24961;SDS011;12992;50.884;13.668;2023-03-31T13:29:40;2.72;;;1.45;;
24961;SDS011;12992;50.884;13.668;2023-03-31T13:32:20;1.88;;;1.27;;
24961;SDS011;12992;50.884;13.668;2023-03-31T13:46:12;2.03;;;1.13;;
24961;SDS011;12992;50.884;13.668;2023-03-31T13:52:14;1.58;;;0.93;;
24961;SDS011;12992;50.884;13.668;2023-03-31T14:00:52;1.02;;;0.82;;
24961;SDS011;12992;50.884;13.668;2023-03-31T14:08:49;2.90;;;1.20;;
24961;SDS011;12992;50.884;13.668;2023-03-31T14:11:22;1.73;;;1.10;;
24961;SDS011;12992;50.884;13.668;2023-03-31T14:14:06;1.35;;;0.98;;
24961;SDS011;12992;50.884;13.668;2023-03-31T14:16:36;0.90;;;0.90;;
24961;SDS011;12992;50.884;13.668;2023-03-31T14:19:20;3.45;;;1.00;;
24961;SDS011;12992;50.884;13.668;2023-03-31T14:27:50;1.60;;;1.10;;
24961;SDS011;12992;50.884;13.668;2023-03-31T14:30:24;3.08;;;1.27;;
24961;SDS011;12992;50.884;13.668;2023-03-31T14:35:32;1.65;;;0.98;;
24961;SDS011;12992;50.884;13.668;2023-03-31T14:38:09;1.10;;;1.00;;
24961;SDS011;12992;50.884;13.668;2023-03-31T14:40:51;3.03;;;1.27;;
24961;SDS011;12992;50.884;13.668;2023-03-31T14:43:21;1.45;;;1.33;;
24961;SDS011;12992;50.884;13.668;2023-03-31T14:45:58;2.40;;;1.17;;
24961;SDS011;12992;50.884;13.668;2023-03-31T14:48:32;2.25;;;1.20;;
24961;SDS011;12992;50.884;13.668;2023-03-31T14:51:13;3.08;;;1.73;;
24961;SDS011;12992;50.884;13.668;2023-03-31T14:53:39;1.75;;;1.00;;
24961;SDS011;12992;50.884;13.668;2023-03-31T14:56:06;1.70;;;0.90;;
24961;SDS011;12992;50.884;13.668;2023-03-31T14:58:43;1.38;;;1.25;;
24961;SDS011;12992;50.884;13.668;2023-03-31T15:01:17;3.35;;;1.45;;
24961;SDS011;12992;50.884;13.668;2023-03-31T15:03:47;2.50;;;1.17;;
24961;SDS011;12992;50.884;13.668;2023-03-31T15:06:14;3.53;;;1.33;;
24961;SDS011;12992;50.884;13.668;2023-03-31T15:08:40;3.80;;;1.42;;
24961;SDS011;12992;50.884;13.668;2023-03-31T15:11:12;1.85;;;1.23;;
24961;SDS011;12992;50.884;13.668;2023-03-31T15:13:44;1.50;;;0.93;;
24961;SDS011;12992;50.884;13.668;2023-03-31T15:16:18;2.77;;;1.20;;
24961;SDS011;12992;50.884;13.668;2023-03-31T15:19:00;3.42;;;1.10;;
24961;SDS011;12992;50.884;13.668;2023-03-31T15:21:30;3.75;;;1.15;;
24961;SDS011;12992;50.884;13.668;2023-03-31T15:24:02;2.17;;;0.90;;
24961;SDS011;12992;50.884;13.668;2023-03-31T15:26:51;2.25;;;1.13;;
24961;SDS011;12992;50.884;13.668;2023-03-31T15:29:19;3.55;;;1.30;;
24961;SDS011;12992;50.884;13.668;2023-03-31T15:31:47;2.88;;;1.08;;
24961;SDS011;12992;50.884;13.668;2023-03-31T15:34:14;1.65;;;0.80;;
24961;SDS011;12992;50.884;13.668;2023-03-31T15:36:45;3.42;;;1.23;;
24961;SDS011;12992;50.884;13.668;2023-03-31T15:39:11;1.20;;;0.90;;
24961;SDS011;12992;50.884;13.668;2023-03-31T15:41:38;1.55;;;0.80;;
24961;SDS011;12992;50.884;13.668;2023-03-31T15:44:47;3.38;;;1.23;;
24961;SDS011;12992;50.884;13.668;2023-03-31T15:49:32;3.60;;;0.90;;
24961;SDS011;12992;50.884;13.668;2023-03-31T15:51:58;1.83;;;0.75;;
24961;SDS011;12992;50.884;13.668;2023-03-31T15:54:28;3.05;;;1.35;;
24961;SDS011;12992;50.884;13.668;2023-03-31T15:56:55;2.15;;;1.00;;
24961;SDS011;12992;50.884;13.668;2023-03-31T15:59:24;2.17;;;0.88;;
24961;SDS011;12992;50.884;13.668;2023-03-31T16:01:52;2.47;;;0.98;;
24961;SDS011;12992;50.884;13.668;2023-03-31T16:04:19;3.65;;;0.88;;
24961;SDS011;12992;50.884;13.668;2023-03-31T16:06:47;2.78;;;1.10;;
24961;SDS011;12992;50.884;13.668;2023-03-31T16:09:27;1.55;;;0.80;;
24961;SDS011;12992;50.884;13.668;2023-03-31T16:12:02;2.17;;;1.00;;
24961;SDS011;12992;50.884;13.668;2023-03-31T16:14:36;2.70;;;0.55;;
24961;SDS011;12992;50.884;13.668;2023-03-31T16:17:10;1.92;;;0.68;;
24961;SDS011;12992;50.884;13.668;2023-03-31T16:19:47;1.90;;;0.73;;
24961;SDS011;12992;50.884;13.668;2023-03-31T16:22:19;3.00;;;0.82;;
24961;SDS011;12992;50.884;13.668;2023-03-31T16:24:46;0.60;;;0.50;;
24961;SDS011;12992;50.884;13.668;2023-03-31T16:27:13;0.95;;;0.60;;
24961;SDS011;12992;50.884;13.668;2023-03-31T16:29:39;2.90;;;0.57;;
24961;SDS011;12992;50.884;13.668;2023-03-31T16:32:05;0.70;;;0.30;;
24961;SDS011;12992;50.884;13.668;2023-03-31T16:34:55;2.03;;;0.70;;
24961;SDS011;12992;50.884;13.668;2023-03-31T16:37:22;3.45;;;0.70;;
24961;SDS011;12992;50.884;13.668;2023-03-31T16:39:47;2.20;;;0.70;;
24961;SDS011;12992;50.884;13.668;2023-03-31T16:42:13;3.50;;;0.95;;
24961;SDS011;12992;50.884;13.668;2023-03-31T16:44:38;3.35;;;1.08;;
24961;SDS011;12992;50.884;13.668;2023-03-31T16:47:03;2.05;;;0.80;;
24961;SDS011;12992;50.884;13.668;2023-03-31T16:49:29;3.10;;;0.75;;
24961;SDS011;12992;50.884;13.668;2023-03-31T16:51:55;2.15;;;0.70;;
24961;SDS011;12992;50.884;13.668;2023-03-31T16:54:20;1.80;;;0.82;;
24961;SDS011;12992;50.884;13.668;2023-03-31T16:56:45;2.75;;;0.90;;
24961;SDS011;12992;50.884;13.668;2023-03-31T16:59:12;2.08;;;0.90;;
24961;SDS011;12992;50.884;13.668;2023-03-31T17:01:37;2.08;;;0.93;;
24961;SDS011;12992;50.884;13.668;2023-03-31T17:04:03;2.58;;;0.90;;
24961;SDS011;12992;50.884;13.668;2023-03-31T17:06:28;1.50;;;0.82;;
24961;SDS011;12992;50.884;13.668;2023-03-31T17:08:53;3.90;;;0.98;;
24961;SDS011;12992;50.884;13.668;2023-03-31T17:11:19;1.98;;;1.20;;
24961;SDS011;12992;50.884;13.668;2023-03-31T17:13:44;2.30;;;0.90;;